sensor_id;sensor_type;location;lat;lon;timestamp;P1;durP1;ratioP1;P2;durP2;ratioP2
70796;SDS011;63842;52.144;5.360;2022-12-07T00:01:21;9.48;;;3.45;;
70796;SDS011;63842;52.144;5.360;2022-12-07T00:03:49;7.63;;;3.28;;
70796;SDS011;63842;52.144;5.360;2022-12-07T00:06:18;10.18;;;3.78;;
70796;SDS011;63842;52.144;5.360;2022-12-07T00:08:45;9.80;;;3.55;;
70796;SDS011;63842;52.144;5.360;2022-12-07T00:11:14;8.57;;;3.28;;
70796;SDS011;63842;52.144;5.360;2022-12-07T00:13:42;9.27;;;2.90;;
70796;SDS011;63842;52.144;5.360;2022-12-07T00:16:11;8.45;;;3.00;;
70796;SDS011;63842;52.144;5.360;2022-12-07T00:18:39;9.88;;;3.80;;
70796;SDS011;63842;52.144;5.360;2022-12-07T00:21:17;8.38;;;2.80;;
70796;SDS011;63842;52.144;5.360;2022-12-07T00:23:45;9.75;;;3.33;;
70796;SDS011;63842;52.144;5.360;2022-12-07T00:26:14;9.13;;;3.13;;
70796;SDS011;63842;52.144;5.360;2022-12-07T00:28:44;12.43;;;3.60;;
70796;SDS011;63842;52.144;5.360;2022-12-07T00:31:12;9.82;;;4.20;;
70796;SDS011;63842;52.144;5.360;2022-12-07T00:33:39;9.88;;;3.20;;
70796;SDS011;63842;52.144;5.360;2022-12-07T00:36:08;8.27;;;3.20;;
70796;SDS011;63842;52.144;5.360;2022-12-07T00:38:36;10.52;;;3.60;;
70796;SDS011;63842;52.144;5.360;2022-12-07T00:41:09;8.80;;;3.15;;
70796;SDS011;63842;52.144;5.360;2022-12-07T00:43:37;9.15;;;2.97;;
70796;SDS011;63842;52.144;5.360;2022-12-07T00:46:04;8.27;;;3.30;;
70796;SDS011;63842;52.144;5.360;2022-12-07T00:48:32;8.90;;;3.03;;
70796;SDS011;63842;52.144;5.360;2022-12-07T00:50:59;9.82;;;3.35;;
70796;SDS011;63842;52.144;5.360;2022-12-07T00:53:27;8.30;;;3.00;;
70796;SDS011;63842;52.144;5.360;2022-12-07T00:55:54;8.80;;;3.20;;
70796;SDS011;63842;52.144;5.360;2022-12-07T00:58:22;7.88;;;2.78;;
70796;SDS011;63842;52.144;5.360;2022-12-07T01:00:50;6.93;;;2.47;;
70796;SDS011;63842;52.144;5.360;2022-12-07T01:03:17;9.52;;;3.17;;
70796;SDS011;63842;52.144;5.360;2022-12-07T01:05:49;7.32;;;2.60;;
70796;SDS011;63842;52.144;5.360;2022-12-07T01:08:16;8.80;;;3.17;;
70796;SDS011;63842;52.144;5.360;2022-12-07T01:10:44;9.05;;;2.58;;
70796;SDS011;63842;52.144;5.360;2022-12-07T01:13:11;7.70;;;2.63;;
70796;SDS011;63842;52.144;5.360;2022-12-07T01:15:39;7.70;;;2.60;;
70796;SDS011;63842;52.144;5.360;2022-12-07T01:18:07;8.05;;;2.80;;
70796;SDS011;63842;52.144;5.360;2022-12-07T01:20:34;8.68;;;2.67;;
70796;SDS011;63842;52.144;5.360;2022-12-07T01:23:02;8.40;;;2.60;;
70796;SDS011;63842;52.144;5.360;2022-12-07T01:25:29;6.70;;;2.35;;
70796;SDS011;63842;52.144;5.360;2022-12-07T01:27:57;10.77;;;2.60;;
70796;SDS011;63842;52.144;5.360;2022-12-07T01:30:24;9.73;;;2.63;;
70796;SDS011;63842;52.144;5.360;2022-12-07T01:32:51;8.15;;;2.20;;
70796;SDS011;63842;52.144;5.360;2022-12-07T01:35:18;8.60;;;2.30;;
70796;SDS011;63842;52.144;5.360;2022-12-07T01:37:46;7.80;;;2.38;;
70796;SDS011;63842;52.144;5.360;2022-12-07T01:40:13;8.60;;;2.50;;
70796;SDS011;63842;52.144;5.360;2022-12-07T01:42:40;6.30;;;2.30;;
70796;SDS011;63842;52.144;5.360;2022-12-07T01:45:50;8.80;;;2.55;;
70796;SDS011;63842;52.144;5.360;2022-12-07T01:47:58;8.18;;;2.08;;
70796;SDS011;63842;52.144;5.360;2022-12-07T01:50:26;10.18;;;2.33;;
70796;SDS011;63842;52.144;5.360;2022-12-07T01:52:55;7.10;;;2.28;;
70796;SDS011;63842;52.144;5.360;2022-12-07T01:55:23;8.27;;;2.22;;
70796;SDS011;63842;52.144;5.360;2022-12-07T01:57:51;8.07;;;2.20;;
70796;SDS011;63842;52.144;5.360;2022-12-07T02:00:19;8.85;;;2.28;;
70796;SDS011;63842;52.144;5.360;2022-12-07T02:03:07;9.85;;;2.20;;
70796;SDS011;63842;52.144;5.360;2022-12-07T02:05:35;7.20;;;1.92;;
70796;SDS011;63842;52.144;5.360;2022-12-07T02:08:03;8.63;;;2.10;;
70796;SDS011;63842;52.144;5.360;2022-12-07T02:10:31;7.60;;;2.72;;
70796;SDS011;63842;52.144;5.360;2022-12-07T02:13:04;6.38;;;2.08;;
70796;SDS011;63842;52.144;5.360;2022-12-07T02:15:39;9.63;;;2.17;;
70796;SDS011;63842;52.144;5.360;2022-12-07T02:18:09;6.72;;;2.15;;
70796;SDS011;63842;52.144;5.360;2022-12-07T02:21:23;7.05;;;2.00;;
70796;SDS011;63842;52.144;5.360;2022-12-07T02:23:32;6.90;;;2.00;;
70796;SDS011;63842;52.144;5.360;2022-12-07T02:31:34;7.30;;;2.08;;
70796;SDS011;63842;52.144;5.360;2022-12-07T02:34:12;6.45;;;2.08;;
70796;SDS011;63842;52.144;5.360;2022-12-07T02:36:44;7.97;;;1.98;;
70796;SDS011;63842;52.144;5.360;2022-12-07T02:41:44;7.05;;;1.98;;
70796;SDS011;63842;52.144;5.360;2022-12-07T02:44:14;7.90;;;2.35;;
70796;SDS011;63842;52.144;5.360;2022-12-07T02:46:44;10.20;;;2.10;;
70796;SDS011;63842;52.144;5.360;2022-12-07T02:49:13;7.03;;;2.08;;
70796;SDS011;63842;52.144;5.360;2022-12-07T02:51:43;8.57;;;2.13;;
70796;SDS011;63842;52.144;5.360;2022-12-07T02:54:14;6.15;;;1.90;;
70796;SDS011;63842;52.144;5.360;2022-12-07T03:12:24;9.38;;;2.17;;
70796;SDS011;63842;52.144;5.360;2022-12-07T03:15:01;8.77;;;2.13;;
70796;SDS011;63842;52.144;5.360;2022-12-07T03:17:31;8.95;;;1.75;;
70796;SDS011;63842;52.144;5.360;2022-12-07T03:22:29;8.40;;;1.90;;
70796;SDS011;63842;52.144;5.360;2022-12-07T03:24:57;6.38;;;1.65;;
70796;SDS011;63842;52.144;5.360;2022-12-07T03:27:31;5.40;;;1.40;;
70796;SDS011;63842;52.144;5.360;2022-12-07T03:30:06;5.93;;;1.58;;
70796;SDS011;63842;52.144;5.360;2022-12-07T03:32:45;8.02;;;1.67;;
70796;SDS011;63842;52.144;5.360;2022-12-07T03:35:17;4.72;;;1.55;;
70796;SDS011;63842;52.144;5.360;2022-12-07T03:40:33;8.45;;;1.92;;
70796;SDS011;63842;52.144;5.360;2022-12-07T03:43:02;7.55;;;1.60;;
70796;SDS011;63842;52.144;5.360;2022-12-07T03:45:40;5.93;;;1.65;;
70796;SDS011;63842;52.144;5.360;2022-12-07T03:48:17;7.57;;;1.75;;
70796;SDS011;63842;52.144;5.360;2022-12-07T03:50:54;8.38;;;1.55;;
70796;SDS011;63842;52.144;5.360;2022-12-07T03:53:24;3.67;;;1.20;;
70796;SDS011;63842;52.144;5.360;2022-12-07T03:55:54;4.30;;;1.33;;
70796;SDS011;63842;52.144;5.360;2022-12-07T03:58:22;4.57;;;1.50;;
70796;SDS011;63842;52.144;5.360;2022-12-07T04:00:50;5.68;;;1.45;;
70796;SDS011;63842;52.144;5.360;2022-12-07T04:03:17;6.03;;;1.65;;
70796;SDS011;63842;52.144;5.360;2022-12-07T04:05:45;3.33;;;1.30;;
70796;SDS011;63842;52.144;5.360;2022-12-07T04:08:12;6.03;;;1.30;;
70796;SDS011;63842;52.144;5.360;2022-12-07T04:10:40;9.70;;;1.58;;
70796;SDS011;63842;52.144;5.360;2022-12-07T04:13:07;7.15;;;1.50;;
70796;SDS011;63842;52.144;5.360;2022-12-07T04:15:34;4.88;;;1.30;;
70796;SDS011;63842;52.144;5.360;2022-12-07T04:18:01;5.30;;;1.17;;
70796;SDS011;63842;52.144;5.360;2022-12-07T04:20:29;10.70;;;1.42;;
70796;SDS011;63842;52.144;5.360;2022-12-07T04:22:56;9.38;;;1.50;;
70796;SDS011;63842;52.144;5.360;2022-12-07T04:25:23;3.63;;;1.13;;
70796;SDS011;63842;52.144;5.360;2022-12-07T04:27:51;4.43;;;1.10;;
70796;SDS011;63842;52.144;5.360;2022-12-07T04:30:18;7.95;;;1.35;;
70796;SDS011;63842;52.144;5.360;2022-12-07T04:32:45;6.18;;;1.50;;
70796;SDS011;63842;52.144;5.360;2022-12-07T04:35:12;7.47;;;1.20;;
70796;SDS011;63842;52.144;5.360;2022-12-07T04:37:39;6.22;;;1.20;;
70796;SDS011;63842;52.144;5.360;2022-12-07T04:40:08;5.78;;;1.50;;
70796;SDS011;63842;52.144;5.360;2022-12-07T04:42:37;3.67;;;1.20;;
70796;SDS011;63842;52.144;5.360;2022-12-07T04:45:05;4.38;;;1.15;;
70796;SDS011;63842;52.144;5.360;2022-12-07T04:47:32;2.70;;;1.00;;
70796;SDS011;63842;52.144;5.360;2022-12-07T04:49:59;6.07;;;1.30;;
70796;SDS011;63842;52.144;5.360;2022-12-07T04:52:27;5.93;;;1.05;;
70796;SDS011;63842;52.144;5.360;2022-12-07T04:54:55;3.17;;;1.02;;
70796;SDS011;63842;52.144;5.360;2022-12-07T04:57:22;6.75;;;1.05;;
70796;SDS011;63842;52.144;5.360;2022-12-07T04:59:49;3.90;;;1.13;;
70796;SDS011;63842;52.144;5.360;2022-12-07T05:02:16;2.67;;;0.82;;
70796;SDS011;63842;52.144;5.360;2022-12-07T05:04:44;2.83;;;1.08;;
70796;SDS011;63842;52.144;5.360;2022-12-07T05:07:11;5.18;;;1.17;;
70796;SDS011;63842;52.144;5.360;2022-12-07T05:09:38;4.57;;;1.05;;
70796;SDS011;63842;52.144;5.360;2022-12-07T05:12:05;3.47;;;0.80;;
70796;SDS011;63842;52.144;5.360;2022-12-07T05:14:32;4.30;;;0.90;;
70796;SDS011;63842;52.144;5.360;2022-12-07T05:17:00;4.38;;;1.20;;
70796;SDS011;63842;52.144;5.360;2022-12-07T05:19:27;2.80;;;0.77;;
70796;SDS011;63842;52.144;5.360;2022-12-07T05:21:54;4.97;;;1.02;;
70796;SDS011;63842;52.144;5.360;2022-12-07T05:24:21;3.33;;;0.65;;
70796;SDS011;63842;52.144;5.360;2022-12-07T05:26:49;5.22;;;1.00;;
70796;SDS011;63842;52.144;5.360;2022-12-07T05:29:16;4.13;;;0.98;;
70796;SDS011;63842;52.144;5.360;2022-12-07T05:31:43;2.15;;;0.73;;
70796;SDS011;63842;52.144;5.360;2022-12-07T05:34:11;6.20;;;1.00;;
70796;SDS011;63842;52.144;5.360;2022-12-07T05:36:39;4.43;;;1.10;;
70796;SDS011;63842;52.144;5.360;2022-12-07T05:39:06;3.67;;;0.90;;
70796;SDS011;63842;52.144;5.360;2022-12-07T05:41:34;2.47;;;0.95;;
70796;SDS011;63842;52.144;5.360;2022-12-07T05:44:19;3.72;;;0.85;;
70796;SDS011;63842;52.144;5.360;2022-12-07T05:46:47;2.20;;;0.60;;
70796;SDS011;63842;52.144;5.360;2022-12-07T05:49:14;3.75;;;1.00;;
70796;SDS011;63842;52.144;5.360;2022-12-07T05:51:41;5.55;;;1.02;;
70796;SDS011;63842;52.144;5.360;2022-12-07T05:54:09;4.57;;;0.90;;
70796;SDS011;63842;52.144;5.360;2022-12-07T05:56:36;3.25;;;0.77;;
70796;SDS011;63842;52.144;5.360;2022-12-07T05:59:03;6.75;;;1.40;;
70796;SDS011;63842;52.144;5.360;2022-12-07T06:01:59;4.38;;;1.05;;
70796;SDS011;63842;52.144;5.360;2022-12-07T06:04:32;4.85;;;0.80;;
70796;SDS011;63842;52.144;5.360;2022-12-07T06:07:00;6.55;;;1.30;;
70796;SDS011;63842;52.144;5.360;2022-12-07T06:09:27;4.88;;;0.90;;
70796;SDS011;63842;52.144;5.360;2022-12-07T06:11:55;3.35;;;0.95;;
70796;SDS011;63842;52.144;5.360;2022-12-07T06:14:42;3.90;;;0.80;;
70796;SDS011;63842;52.144;5.360;2022-12-07T06:17:09;7.68;;;1.10;;
70796;SDS011;63842;52.144;5.360;2022-12-07T06:19:37;4.90;;;1.05;;
70796;SDS011;63842;52.144;5.360;2022-12-07T06:22:04;2.60;;;0.88;;
70796;SDS011;63842;52.144;5.360;2022-12-07T06:24:32;3.45;;;1.00;;
70796;SDS011;63842;52.144;5.360;2022-12-07T06:26:59;4.47;;;1.10;;
70796;SDS011;63842;52.144;5.360;2022-12-07T06:29:27;6.35;;;0.93;;
70796;SDS011;63842;52.144;5.360;2022-12-07T06:31:54;5.03;;;1.05;;
70796;SDS011;63842;52.144;5.360;2022-12-07T06:34:22;5.95;;;1.10;;
70796;SDS011;63842;52.144;5.360;2022-12-07T06:36:50;4.53;;;1.23;;
70796;SDS011;63842;52.144;5.360;2022-12-07T06:39:20;5.97;;;1.10;;
70796;SDS011;63842;52.144;5.360;2022-12-07T06:41:48;4.38;;;1.27;;
70796;SDS011;63842;52.144;5.360;2022-12-07T06:44:15;6.63;;;2.60;;
70796;SDS011;63842;52.144;5.360;2022-12-07T06:46:42;5.65;;;2.08;;
70796;SDS011;63842;52.144;5.360;2022-12-07T06:49:10;7.57;;;2.05;;
70796;SDS011;63842;52.144;5.360;2022-12-07T06:51:37;7.75;;;1.65;;
70796;SDS011;63842;52.144;5.360;2022-12-07T06:54:07;5.18;;;1.23;;
70796;SDS011;63842;52.144;5.360;2022-12-07T06:56:35;7.25;;;1.40;;
70796;SDS011;63842;52.144;5.360;2022-12-07T06:59:03;6.55;;;1.60;;
70796;SDS011;63842;52.144;5.360;2022-12-07T07:01:32;4.20;;;1.35;;
70796;SDS011;63842;52.144;5.360;2022-12-07T07:03:59;4.20;;;1.23;;
70796;SDS011;63842;52.144;5.360;2022-12-07T07:06:27;6.05;;;1.23;;
70796;SDS011;63842;52.144;5.360;2022-12-07T07:08:54;6.88;;;1.60;;
70796;SDS011;63842;52.144;5.360;2022-12-07T07:11:21;4.53;;;1.10;;
70796;SDS011;63842;52.144;5.360;2022-12-07T07:13:50;5.95;;;1.40;;
70796;SDS011;63842;52.144;5.360;2022-12-07T07:16:17;5.43;;;1.10;;
70796;SDS011;63842;52.144;5.360;2022-12-07T07:18:44;7.72;;;1.10;;
70796;SDS011;63842;52.144;5.360;2022-12-07T07:21:12;5.65;;;1.60;;
70796;SDS011;63842;52.144;5.360;2022-12-07T07:23:39;6.78;;;1.30;;
70796;SDS011;63842;52.144;5.360;2022-12-07T07:26:06;5.13;;;1.50;;
70796;SDS011;63842;52.144;5.360;2022-12-07T07:28:34;5.75;;;1.35;;
70796;SDS011;63842;52.144;5.360;2022-12-07T07:31:01;3.72;;;1.00;;
70796;SDS011;63842;52.144;5.360;2022-12-07T07:33:28;4.18;;;1.00;;
70796;SDS011;63842;52.144;5.360;2022-12-07T07:35:55;6.68;;;1.30;;
70796;SDS011;63842;52.144;5.360;2022-12-07T07:38:23;4.85;;;1.35;;
70796;SDS011;63842;52.144;5.360;2022-12-07T07:40:50;5.53;;;1.15;;
70796;SDS011;63842;52.144;5.360;2022-12-07T07:43:17;5.63;;;1.30;;
70796;SDS011;63842;52.144;5.360;2022-12-07T07:45:45;7.88;;;1.30;;
70796;SDS011;63842;52.144;5.360;2022-12-07T07:48:12;3.95;;;1.13;;
70796;SDS011;63842;52.144;5.360;2022-12-07T07:50:39;7.82;;;1.20;;
70796;SDS011;63842;52.144;5.360;2022-12-07T07:53:07;6.45;;;1.33;;
70796;SDS011;63842;52.144;5.360;2022-12-07T07:55:34;7.32;;;1.17;;
70796;SDS011;63842;52.144;5.360;2022-12-07T07:58:02;4.30;;;1.02;;
70796;SDS011;63842;52.144;5.360;2022-12-07T08:00:29;5.75;;;1.17;;
70796;SDS011;63842;52.144;5.360;2022-12-07T08:02:56;8.68;;;1.10;;
70796;SDS011;63842;52.144;5.360;2022-12-07T08:05:23;4.72;;;1.23;;
70796;SDS011;63842;52.144;5.360;2022-12-07T08:07:51;4.18;;;1.17;;
70796;SDS011;63842;52.144;5.360;2022-12-07T08:10:18;6.38;;;1.33;;
70796;SDS011;63842;52.144;5.360;2022-12-07T08:12:45;5.07;;;1.40;;
70796;SDS011;63842;52.144;5.360;2022-12-07T08:15:31;6.75;;;1.33;;
70796;SDS011;63842;52.144;5.360;2022-12-07T08:17:59;3.13;;;0.90;;
70796;SDS011;63842;52.144;5.360;2022-12-07T08:20:26;4.63;;;1.10;;
70796;SDS011;63842;52.144;5.360;2022-12-07T08:22:53;5.22;;;1.40;;
70796;SDS011;63842;52.144;5.360;2022-12-07T08:25:21;4.53;;;1.25;;
70796;SDS011;63842;52.144;5.360;2022-12-07T08:27:48;4.95;;;1.27;;
70796;SDS011;63842;52.144;5.360;2022-12-07T08:30:16;5.80;;;1.20;;
70796;SDS011;63842;52.144;5.360;2022-12-07T08:32:46;5.38;;;1.30;;
70796;SDS011;63842;52.144;5.360;2022-12-07T08:35:14;4.10;;;1.00;;
70796;SDS011;63842;52.144;5.360;2022-12-07T08:37:41;6.80;;;1.35;;
70796;SDS011;63842;52.144;5.360;2022-12-07T08:40:10;4.43;;;1.23;;
70796;SDS011;63842;52.144;5.360;2022-12-07T08:42:41;5.68;;;1.23;;
70796;SDS011;63842;52.144;5.360;2022-12-07T08:45:12;5.75;;;1.30;;
70796;SDS011;63842;52.144;5.360;2022-12-07T08:47:44;6.30;;;1.25;;
70796;SDS011;63842;52.144;5.360;2022-12-07T08:50:13;4.88;;;1.17;;
70796;SDS011;63842;52.144;5.360;2022-12-07T08:52:41;4.22;;;1.10;;
70796;SDS011;63842;52.144;5.360;2022-12-07T08:55:09;6.80;;;1.20;;
70796;SDS011;63842;52.144;5.360;2022-12-07T08:57:37;6.68;;;1.60;;
70796;SDS011;63842;52.144;5.360;2022-12-07T09:00:05;5.85;;;1.40;;
70796;SDS011;63842;52.144;5.360;2022-12-07T09:02:33;5.32;;;1.27;;
70796;SDS011;63842;52.144;5.360;2022-12-07T09:05:00;8.15;;;1.80;;
70796;SDS011;63842;52.144;5.360;2022-12-07T09:07:27;5.38;;;1.80;;
70796;SDS011;63842;52.144;5.360;2022-12-07T09:12:24;5.03;;;1.48;;
70796;SDS011;63842;52.144;5.360;2022-12-07T09:14:51;4.50;;;1.48;;
70796;SDS011;63842;52.144;5.360;2022-12-07T09:17:19;6.95;;;1.55;;
70796;SDS011;63842;52.144;5.360;2022-12-07T09:19:46;4.63;;;1.17;;
70796;SDS011;63842;52.144;5.360;2022-12-07T09:22:13;5.63;;;1.40;;
70796;SDS011;63842;52.144;5.360;2022-12-07T09:24:41;5.50;;;1.30;;
70796;SDS011;63842;52.144;5.360;2022-12-07T09:27:08;3.97;;;1.25;;
70796;SDS011;63842;52.144;5.360;2022-12-07T09:29:35;4.60;;;1.20;;
70796;SDS011;63842;52.144;5.360;2022-12-07T09:32:03;4.07;;;1.20;;
70796;SDS011;63842;52.144;5.360;2022-12-07T09:34:37;5.63;;;1.40;;
70796;SDS011;63842;52.144;5.360;2022-12-07T09:37:04;5.43;;;1.05;;
70796;SDS011;63842;52.144;5.360;2022-12-07T09:39:32;8.02;;;1.58;;
70796;SDS011;63842;52.144;5.360;2022-12-07T09:41:59;5.15;;;1.10;;
70796;SDS011;63842;52.144;5.360;2022-12-07T09:44:29;6.78;;;1.00;;
70796;SDS011;63842;52.144;5.360;2022-12-07T09:46:57;5.80;;;1.30;;
70796;SDS011;63842;52.144;5.360;2022-12-07T09:49:27;3.92;;;1.10;;
70796;SDS011;63842;52.144;5.360;2022-12-07T09:51:59;2.92;;;1.10;;
70796;SDS011;63842;52.144;5.360;2022-12-07T09:54:27;7.40;;;1.10;;
70796;SDS011;63842;52.144;5.360;2022-12-07T09:56:56;4.32;;;1.10;;
70796;SDS011;63842;52.144;5.360;2022-12-07T09:59:23;7.50;;;1.30;;
70796;SDS011;63842;52.144;5.360;2022-12-07T10:01:50;6.97;;;1.00;;
70796;SDS011;63842;52.144;5.360;2022-12-07T10:04:19;3.53;;;1.13;;
70796;SDS011;63842;52.144;5.360;2022-12-07T10:09:16;5.07;;;1.40;;
70796;SDS011;63842;52.144;5.360;2022-12-07T10:22:19;7.25;;;2.13;;
70796;SDS011;63842;52.144;5.360;2022-12-07T10:24:46;7.45;;;1.75;;
70796;SDS011;63842;52.144;5.360;2022-12-07T10:27:31;9.15;;;2.08;;
70796;SDS011;63842;52.144;5.360;2022-12-07T10:29:58;8.35;;;2.38;;
70796;SDS011;63842;52.144;5.360;2022-12-07T10:35:15;8.15;;;2.08;;
70796;SDS011;63842;52.144;5.360;2022-12-07T10:37:41;7.28;;;1.67;;
70796;SDS011;63842;52.144;5.360;2022-12-07T10:40:26;6.03;;;1.70;;
70796;SDS011;63842;52.144;5.360;2022-12-07T10:43:00;8.63;;;1.88;;
70796;SDS011;63842;52.144;5.360;2022-12-07T10:45:28;6.57;;;1.75;;
70796;SDS011;63842;52.144;5.360;2022-12-07T10:47:58;7.13;;;1.92;;
70796;SDS011;63842;52.144;5.360;2022-12-07T10:50:29;8.27;;;2.00;;
70796;SDS011;63842;52.144;5.360;2022-12-07T11:12:28;5.00;;;1.20;;
70796;SDS011;63842;52.144;5.360;2022-12-07T11:15:21;6.07;;;1.52;;
70796;SDS011;63842;52.144;5.360;2022-12-07T11:18:05;7.68;;;1.40;;
70796;SDS011;63842;52.144;5.360;2022-12-07T11:25:54;3.58;;;1.20;;
70796;SDS011;63842;52.144;5.360;2022-12-07T11:31:00;5.25;;;1.30;;
70796;SDS011;63842;52.144;5.360;2022-12-07T11:33:33;7.43;;;1.17;;
70796;SDS011;63842;52.144;5.360;2022-12-07T11:41:08;3.67;;;1.00;;
70796;SDS011;63842;52.144;5.360;2022-12-07T11:46:27;4.78;;;1.30;;
70796;SDS011;63842;52.144;5.360;2022-12-07T11:49:04;4.50;;;1.00;;
70796;SDS011;63842;52.144;5.360;2022-12-07T11:51:35;3.03;;;1.20;;
70796;SDS011;63842;52.144;5.360;2022-12-07T11:54:21;6.70;;;1.38;;
70796;SDS011;63842;52.144;5.360;2022-12-07T11:56:50;4.20;;;1.00;;
70796;SDS011;63842;52.144;5.360;2022-12-07T11:59:21;3.85;;;1.00;;
70796;SDS011;63842;52.144;5.360;2022-12-07T12:01:53;4.25;;;1.35;;
70796;SDS011;63842;52.144;5.360;2022-12-07T12:07:00;4.82;;;1.00;;
70796;SDS011;63842;52.144;5.360;2022-12-07T12:09:52;3.60;;;1.27;;
70796;SDS011;63842;52.144;5.360;2022-12-07T12:12:24;5.45;;;1.55;;
70796;SDS011;63842;52.144;5.360;2022-12-07T12:15:28;5.65;;;1.40;;
70796;SDS011;63842;52.144;5.360;2022-12-07T12:20:28;4.20;;;1.00;;
70796;SDS011;63842;52.144;5.360;2022-12-07T12:25:28;5.55;;;1.02;;
70796;SDS011;63842;52.144;5.360;2022-12-07T12:27:57;5.20;;;1.00;;
70796;SDS011;63842;52.144;5.360;2022-12-07T12:32:52;6.57;;;1.20;;
70796;SDS011;63842;52.144;5.360;2022-12-07T12:35:32;5.45;;;1.13;;
70796;SDS011;63842;52.144;5.360;2022-12-07T12:40:43;5.90;;;1.65;;
70796;SDS011;63842;52.144;5.360;2022-12-07T12:44:02;4.90;;;1.10;;
70796;SDS011;63842;52.144;5.360;2022-12-07T12:48:49;6.07;;;1.20;;
70796;SDS011;63842;52.144;5.360;2022-12-07T12:54:03;6.15;;;0.98;;
70796;SDS011;63842;52.144;5.360;2022-12-07T12:56:40;5.35;;;1.23;;
70796;SDS011;63842;52.144;5.360;2022-12-07T13:04:27;7.32;;;0.95;;
70796;SDS011;63842;52.144;5.360;2022-12-07T13:06:55;5.97;;;0.70;;
70796;SDS011;63842;52.144;5.360;2022-12-07T13:09:27;6.53;;;1.15;;
70796;SDS011;63842;52.144;5.360;2022-12-07T13:12:00;3.40;;;1.13;;
70796;SDS011;63842;52.144;5.360;2022-12-07T13:17:10;4.07;;;1.00;;
70796;SDS011;63842;52.144;5.360;2022-12-07T13:22:50;2.40;;;0.80;;
70796;SDS011;63842;52.144;5.360;2022-12-07T13:27:34;6.63;;;1.65;;
70796;SDS011;63842;52.144;5.360;2022-12-07T13:32:31;5.60;;;1.60;;
70796;SDS011;63842;52.144;5.360;2022-12-07T13:34:58;6.50;;;1.60;;
70796;SDS011;63842;52.144;5.360;2022-12-07T13:37:27;5.57;;;1.77;;
70796;SDS011;63842;52.144;5.360;2022-12-07T13:40:19;6.65;;;1.88;;
70796;SDS011;63842;52.144;5.360;2022-12-07T13:42:46;5.40;;;1.80;;
70796;SDS011;63842;52.144;5.360;2022-12-07T13:45:33;5.35;;;1.50;;
70796;SDS011;63842;52.144;5.360;2022-12-07T13:50:43;4.53;;;1.52;;
70796;SDS011;63842;52.144;5.360;2022-12-07T13:53:13;7.63;;;2.00;;
70796;SDS011;63842;52.144;5.360;2022-12-07T13:55:45;7.50;;;1.50;;
70796;SDS011;63842;52.144;5.360;2022-12-07T13:58:19;6.85;;;1.48;;
70796;SDS011;63842;52.144;5.360;2022-12-07T14:00:47;6.90;;;1.90;;
70796;SDS011;63842;52.144;5.360;2022-12-07T14:05:42;7.68;;;1.80;;
70796;SDS011;63842;52.144;5.360;2022-12-07T14:10:38;4.82;;;1.50;;
70796;SDS011;63842;52.144;5.360;2022-12-07T14:15:52;5.38;;;1.67;;
70796;SDS011;63842;52.144;5.360;2022-12-07T14:18:30;6.78;;;1.80;;
70796;SDS011;63842;52.144;5.360;2022-12-07T14:23:37;6.22;;;1.50;;
70796;SDS011;63842;52.144;5.360;2022-12-07T14:26:13;6.90;;;1.67;;
70796;SDS011;63842;52.144;5.360;2022-12-07T14:28:41;4.85;;;1.25;;
70796;SDS011;63842;52.144;5.360;2022-12-07T14:31:13;5.78;;;1.50;;
70796;SDS011;63842;52.144;5.360;2022-12-07T14:33:49;3.70;;;1.20;;
70796;SDS011;63842;52.144;5.360;2022-12-07T14:36:16;5.35;;;1.30;;
70796;SDS011;63842;52.144;5.360;2022-12-07T14:38:43;7.50;;;1.40;;
70796;SDS011;63842;52.144;5.360;2022-12-07T14:41:15;7.30;;;1.65;;
70796;SDS011;63842;52.144;5.360;2022-12-07T14:44:08;5.45;;;1.30;;
70796;SDS011;63842;52.144;5.360;2022-12-07T14:46:50;5.70;;;1.08;;
70796;SDS011;63842;52.144;5.360;2022-12-07T14:49:37;4.93;;;1.13;;
70796;SDS011;63842;52.144;5.360;2022-12-07T14:52:05;3.58;;;1.00;;
70796;SDS011;63842;52.144;5.360;2022-12-07T14:54:55;5.00;;;1.00;;
70796;SDS011;63842;52.144;5.360;2022-12-07T14:57:23;3.05;;;0.90;;
70796;SDS011;63842;52.144;5.360;2022-12-07T14:59:50;2.05;;;0.70;;
70796;SDS011;63842;52.144;5.360;2022-12-07T15:02:18;3.45;;;1.02;;
70796;SDS011;63842;52.144;5.360;2022-12-07T15:04:45;5.53;;;0.90;;
70796;SDS011;63842;52.144;5.360;2022-12-07T15:07:18;7.75;;;1.70;;
70796;SDS011;63842;52.144;5.360;2022-12-07T15:09:46;24.77;;;5.60;;
70796;SDS011;63842;52.144;5.360;2022-12-07T15:12:14;6.88;;;1.70;;
70796;SDS011;63842;52.144;5.360;2022-12-07T15:14:41;11.77;;;3.92;;
70796;SDS011;63842;52.144;5.360;2022-12-07T15:17:11;11.60;;;2.67;;
70796;SDS011;63842;52.144;5.360;2022-12-07T15:19:55;10.45;;;2.67;;
70796;SDS011;63842;52.144;5.360;2022-12-07T15:22:22;10.70;;;3.05;;
70796;SDS011;63842;52.144;5.360;2022-12-07T15:24:49;12.40;;;2.47;;
70796;SDS011;63842;52.144;5.360;2022-12-07T15:27:16;8.43;;;2.03;;
70796;SDS011;63842;52.144;5.360;2022-12-07T15:29:44;4.43;;;1.33;;
70796;SDS011;63842;52.144;5.360;2022-12-07T15:32:11;6.35;;;2.08;;
70796;SDS011;63842;52.144;5.360;2022-12-07T15:34:38;5.05;;;1.42;;
70796;SDS011;63842;52.144;5.360;2022-12-07T15:37:06;8.70;;;2.33;;
70796;SDS011;63842;52.144;5.360;2022-12-07T15:39:34;3.85;;;1.23;;
70796;SDS011;63842;52.144;5.360;2022-12-07T15:42:01;6.35;;;1.83;;
70796;SDS011;63842;52.144;5.360;2022-12-07T15:44:28;7.95;;;1.30;;
70796;SDS011;63842;52.144;5.360;2022-12-07T15:47:14;4.20;;;1.30;;
70796;SDS011;63842;52.144;5.360;2022-12-07T15:49:42;5.03;;;1.23;;
70796;SDS011;63842;52.144;5.360;2022-12-07T15:52:09;4.50;;;1.10;;
70796;SDS011;63842;52.144;5.360;2022-12-07T15:54:36;2.42;;;1.00;;
70796;SDS011;63842;52.144;5.360;2022-12-07T15:57:04;2.83;;;0.90;;
70796;SDS011;63842;52.144;5.360;2022-12-07T15:59:34;5.00;;;1.13;;
70796;SDS011;63842;52.144;5.360;2022-12-07T16:02:01;4.97;;;1.33;;
70796;SDS011;63842;52.144;5.360;2022-12-07T16:04:29;6.47;;;1.63;;
70796;SDS011;63842;52.144;5.360;2022-12-07T16:06:56;2.97;;;1.00;;
70796;SDS011;63842;52.144;5.360;2022-12-07T16:09:24;5.88;;;1.20;;
70796;SDS011;63842;52.144;5.360;2022-12-07T16:11:51;5.20;;;1.20;;
70796;SDS011;63842;52.144;5.360;2022-12-07T16:14:19;3.50;;;1.10;;
70796;SDS011;63842;52.144;5.360;2022-12-07T16:16:47;4.20;;;1.20;;
70796;SDS011;63842;52.144;5.360;2022-12-07T16:19:14;6.80;;;1.30;;
70796;SDS011;63842;52.144;5.360;2022-12-07T16:21:41;5.15;;;1.30;;
70796;SDS011;63842;52.144;5.360;2022-12-07T16:24:09;5.25;;;1.50;;
70796;SDS011;63842;52.144;5.360;2022-12-07T16:26:36;4.68;;;1.20;;
70796;SDS011;63842;52.144;5.360;2022-12-07T16:29:04;4.07;;;1.30;;
70796;SDS011;63842;52.144;5.360;2022-12-07T16:31:31;7.18;;;1.42;;
70796;SDS011;63842;52.144;5.360;2022-12-07T16:34:00;5.35;;;1.20;;
70796;SDS011;63842;52.144;5.360;2022-12-07T16:36:27;4.85;;;1.38;;
70796;SDS011;63842;52.144;5.360;2022-12-07T16:39:14;6.60;;;1.75;;
70796;SDS011;63842;52.144;5.360;2022-12-07T16:41:42;3.88;;;1.25;;
70796;SDS011;63842;52.144;5.360;2022-12-07T16:44:10;4.50;;;1.05;;
70796;SDS011;63842;52.144;5.360;2022-12-07T16:46:38;3.97;;;1.55;;
70796;SDS011;63842;52.144;5.360;2022-12-07T16:49:05;5.32;;;2.33;;
70796;SDS011;63842;52.144;5.360;2022-12-07T16:51:33;4.63;;;1.52;;
70796;SDS011;63842;52.144;5.360;2022-12-07T16:56:30;5.30;;;1.83;;
70796;SDS011;63842;52.144;5.360;2022-12-07T16:58:58;6.57;;;1.70;;
70796;SDS011;63842;52.144;5.360;2022-12-07T17:01:25;5.68;;;1.55;;
70796;SDS011;63842;52.144;5.360;2022-12-07T17:03:56;4.38;;;1.42;;
70796;SDS011;63842;52.144;5.360;2022-12-07T17:06:25;4.93;;;1.50;;
70796;SDS011;63842;52.144;5.360;2022-12-07T17:08:52;8.30;;;2.40;;
70796;SDS011;63842;52.144;5.360;2022-12-07T17:11:21;4.05;;;1.40;;
70796;SDS011;63842;52.144;5.360;2022-12-07T17:13:49;3.47;;;1.40;;
70796;SDS011;63842;52.144;5.360;2022-12-07T17:16:36;7.60;;;1.77;;